This is the latest recevied weather packets stored in our database for station/object W4OTS. If no packets are shown the sender has not sent any weather packets the latest 1 day(s).
| Time | Temp. | Humidity | Pressure | Rain* | Wind** | Luminosity | Snow |
|---|---|---|---|---|---|---|---|
| 1778012774 | 24.44° C | 43% | 1016.1 hPa | 0 mm | 2.24 m/s, 221° | 111 W/m² | - |
| 1778012470 | 23.89° C | 44% | 1016 hPa | 0 mm | 1.79 m/s, 163° | 131 W/m² | - |
| 1778012167 | 23.89° C | 45% | 1016.3 hPa | 0 mm | 0.89 m/s, 196° | 101 W/m² | - |
| 1778011865 | 23.89° C | 45% | 1016.4 hPa | 0 mm | 0.89 m/s, 196° | 109 W/m² | - |
| 1778011563 | 23.89° C | 44% | 1016.3 hPa | 0 mm | 1.34 m/s, 192° | 139 W/m² | - |
| 1778011260 | 23.89° C | 45% | 1016.3 hPa | 0 mm | 2.68 m/s, 174° | 117 W/m² | - |
| 1778010956 | 24.44° C | 43% | 1016.2 hPa | 0 mm | 2.24 m/s, 183° | 104 W/m² | - |
| 1778010653 | 24.44° C | 45% | 1016.4 hPa | 0 mm | 1.34 m/s, 194° | 93 W/m² | - |
| 1778010350 | 25° C | 45% | 1016.3 hPa | 0 mm | 1.34 m/s, 207° | 82 W/m² | - |
| 1778010046 | 24.44° C | 47% | 1016.5 hPa | 0 mm | 0.45 m/s, 203° | 85 W/m² | - |
| 1778009743 | 24.44° C | 44% | 1016.3 hPa | 0 mm | 2.68 m/s, 68° | 145 W/m² | - |
| 1778009440 | 23.89° C | 45% | 1016.6 hPa | 0 mm | 1.79 m/s, 147° | 78 W/m² | - |
| 1778009139 | 23.89° C | 45% | 1016.6 hPa | 0 mm | 2.68 m/s, 159° | 63 W/m² | - |
| 1778008836 | 24.44° C | 45% | 1016.6 hPa | 0 mm | 0.89 m/s, 233° | 62 W/m² | - |
| 1778008534 | 23.89° C | 45% | 1016.6 hPa | 0 mm | 0.45 m/s, 240° | 55 W/m² | - |
| 1778008232 | 23.89° C | 44% | 1016.9 hPa | 0 mm | 1.79 m/s, 196° | 72 W/m² | - |
| 1778007936 | 24.44° C | 43% | 1016.9 hPa | 0 mm | 1.79 m/s, 193° | 87 W/m² | - |
| 1778007623 | 24.44° C | 41% | 1017.2 hPa | 0 mm | 0.89 m/s, 260° | 94 W/m² | - |
| 1778007319 | 24.44° C | 42% | 1017 hPa | 0 mm | 2.24 m/s, 160° | 86 W/m² | - |
| 1778007016 | 24.44° C | 42% | 1017.2 hPa | 0 mm | 1.79 m/s, 192° | 209 W/m² | - |
| 1778006713 | 24.44° C | 43% | 1017.3 hPa | 0 mm | 1.34 m/s, 203° | 171 W/m² | - |
| 1778006409 | 24.44° C | 44% | 1017.3 hPa | 0 mm | 1.34 m/s, 247° | 595 W/m² | - |
| 1778006106 | 24.44° C | 44% | 1017.2 hPa | 0 mm | 3.13 m/s, 181° | 262 W/m² | - |
| 1778005802 | 24.44° C | 45% | 1017.2 hPa | 0 mm | 0.45 m/s, 225° | 624 W/m² | - |
| 1778005494 | 24.44° C | 44% | 1017.4 hPa | 0 mm | 2.68 m/s, 167° | 106 W/m² | - |
* Rain latest hour (hover to see other rain measurements)
** Current wind speed in m/s (hover to see current wind gust speed)